Main page
METAR-TAF:

METAR-TAF

Airports :

Kristianstad Airport

Kristianstad, Sweden

latitude: 55-55N, longitude: 014-05E, elevation: 23 m

Current weather observation

The report was made 10 minutes ago, at 18:50 UTC
Wind 13 kt from the Southwest
Temperature 6°C
Humidity 81%
Pressure 993 hPa
Visibility 10 km or more
Few clouds at a height of 3800 ft

METAR: ESMK 091850Z 22013KT 9999 FEW038 06/03 Q0993

Time: 20:00 (19:00 UTC)

Forecast

The report was made 1 hour and 59 minutes ago, at 17:01 UTC
Forecast valid from 09 at 18 UTC to 09 at 21 UTC
Wind 12 kt from the Southwest
Visibility 10 km or more
Broken clouds at a height of 2000 ft
Becoming
from 09 at 18 UTC to 09 at 21 UTC
Wind 15 kt from the West with gusts up to 25 kt

TAF: ESMK 091701Z 0918/0921 22012KT 9999 BKN020 BECMG 0918/0921 27015G25KT

Weather observations and forecasts of more than 4000 airports (METAR and TAF reports).

The available stations are represented by yellow and red dots on the map.

Hover mouse over dot to see the name of the station.

Then click to see weather observations and forecasts.

To change the map : click on the green buttons with a black cross to zoom in, on the green button with a dash to zoom out, or on the green arrows for adjacent maps.


METAR-TAF: